sensor_id;sensor_type;location;lat;lon;timestamp;P1;durP1;ratioP1;P2;durP2;ratioP2
66559;SDS011;53413;49.878;8.142;2023-07-29T00:02:16;5.68;;;2.47;;
66559;SDS011;53413;49.878;8.142;2023-07-29T00:04:41;4.68;;;2.30;;
66559;SDS011;53413;49.878;8.142;2023-07-29T00:07:07;5.43;;;2.47;;
66559;SDS011;53413;49.878;8.142;2023-07-29T00:09:32;6.03;;;2.50;;
66559;SDS011;53413;49.878;8.142;2023-07-29T00:11:57;5.53;;;2.27;;
66559;SDS011;53413;49.878;8.142;2023-07-29T00:14:23;4.65;;;2.03;;
66559;SDS011;53413;49.878;8.142;2023-07-29T00:16:48;4.33;;;2.17;;
66559;SDS011;53413;49.878;8.142;2023-07-29T00:19:14;4.77;;;2.20;;
66559;SDS011;53413;49.878;8.142;2023-07-29T00:21:39;6.50;;;2.30;;
66559;SDS011;53413;49.878;8.142;2023-07-29T00:24:06;5.63;;;2.35;;
66559;SDS011;53413;49.878;8.142;2023-07-29T00:26:31;5.13;;;2.40;;
66559;SDS011;53413;49.878;8.142;2023-07-29T00:28:57;5.57;;;2.50;;
66559;SDS011;53413;49.878;8.142;2023-07-29T00:31:22;6.10;;;2.30;;
66559;SDS011;53413;49.878;8.142;2023-07-29T00:33:48;4.70;;;2.20;;
66559;SDS011;53413;49.878;8.142;2023-07-29T00:36:13;5.33;;;2.30;;
66559;SDS011;53413;49.878;8.142;2023-07-29T00:38:38;6.00;;;2.60;;
66559;SDS011;53413;49.878;8.142;2023-07-29T00:41:04;5.00;;;2.45;;
66559;SDS011;53413;49.878;8.142;2023-07-29T00:43:30;5.57;;;2.58;;
66559;SDS011;53413;49.878;8.142;2023-07-29T00:45:55;4.57;;;2.38;;
66559;SDS011;53413;49.878;8.142;2023-07-29T00:48:22;4.57;;;2.10;;
66559;SDS011;53413;49.878;8.142;2023-07-29T00:50:49;4.88;;;2.40;;
66559;SDS011;53413;49.878;8.142;2023-07-29T00:53:15;4.85;;;2.42;;
66559;SDS011;53413;49.878;8.142;2023-07-29T00:55:40;6.33;;;2.60;;
66559;SDS011;53413;49.878;8.142;2023-07-29T00:58:07;5.68;;;2.33;;
66559;SDS011;53413;49.878;8.142;2023-07-29T01:00:32;6.50;;;2.33;;
66559;SDS011;53413;49.878;8.142;2023-07-29T01:02:57;5.53;;;2.30;;
66559;SDS011;53413;49.878;8.142;2023-07-29T01:05:23;4.80;;;2.20;;
66559;SDS011;53413;49.878;8.142;2023-07-29T01:08:12;4.90;;;2.20;;
66559;SDS011;53413;49.878;8.142;2023-07-29T01:10:51;4.50;;;2.38;;
66559;SDS011;53413;49.878;8.142;2023-07-29T01:13:43;5.30;;;2.50;;
66559;SDS011;53413;49.878;8.142;2023-07-29T01:16:17;4.80;;;2.40;;
66559;SDS011;53413;49.878;8.142;2023-07-29T01:18:47;5.55;;;2.13;;
66559;SDS011;53413;49.878;8.142;2023-07-29T01:21:15;4.30;;;2.03;;
66559;SDS011;53413;49.878;8.142;2023-07-29T01:23:42;5.65;;;2.50;;
66559;SDS011;53413;49.878;8.142;2023-07-29T01:26:08;5.40;;;2.40;;
66559;SDS011;53413;49.878;8.142;2023-07-29T01:28:33;5.30;;;2.30;;
66559;SDS011;53413;49.878;8.142;2023-07-29T01:31:01;6.15;;;2.13;;
66559;SDS011;53413;49.878;8.142;2023-07-29T01:33:34;5.20;;;2.45;;
66559;SDS011;53413;49.878;8.142;2023-07-29T01:36:11;5.32;;;2.63;;
66559;SDS011;53413;49.878;8.142;2023-07-29T01:38:41;5.18;;;2.50;;
66559;SDS011;53413;49.878;8.142;2023-07-29T01:41:09;4.88;;;2.63;;
66559;SDS011;53413;49.878;8.142;2023-07-29T01:43:36;5.53;;;2.60;;
66559;SDS011;53413;49.878;8.142;2023-07-29T01:46:12;7.85;;;2.55;;
66559;SDS011;53413;49.878;8.142;2023-07-29T01:48:38;4.88;;;2.50;;
66559;SDS011;53413;49.878;8.142;2023-07-29T01:51:04;5.35;;;2.50;;
66559;SDS011;53413;49.878;8.142;2023-07-29T01:53:30;5.78;;;2.55;;
66559;SDS011;53413;49.878;8.142;2023-07-29T01:55:56;6.50;;;2.50;;
66559;SDS011;53413;49.878;8.142;2023-07-29T01:58:22;6.65;;;2.80;;
66559;SDS011;53413;49.878;8.142;2023-07-29T02:00:47;11.97;;;3.60;;
66559;SDS011;53413;49.878;8.142;2023-07-29T02:03:13;10.02;;;3.10;;
66559;SDS011;53413;49.878;8.142;2023-07-29T02:05:39;11.48;;;3.25;;
66559;SDS011;53413;49.878;8.142;2023-07-29T02:08:04;19.10;;;4.00;;
66559;SDS011;53413;49.878;8.142;2023-07-29T02:10:29;9.40;;;2.93;;
66559;SDS011;53413;49.878;8.142;2023-07-29T02:12:54;8.43;;;2.80;;
66559;SDS011;53413;49.878;8.142;2023-07-29T02:15:20;5.75;;;2.70;;
66559;SDS011;53413;49.878;8.142;2023-07-29T02:17:45;8.63;;;3.20;;
66559;SDS011;53413;49.878;8.142;2023-07-29T02:20:10;9.37;;;3.37;;
66559;SDS011;53413;49.878;8.142;2023-07-29T02:22:36;8.87;;;3.47;;
66559;SDS011;53413;49.878;8.142;2023-07-29T02:25:01;9.30;;;3.23;;
66559;SDS011;53413;49.878;8.142;2023-07-29T02:27:27;7.43;;;3.20;;
66559;SDS011;53413;49.878;8.142;2023-07-29T02:29:53;7.37;;;2.67;;
66559;SDS011;53413;49.878;8.142;2023-07-29T02:32:19;9.43;;;3.75;;
66559;SDS011;53413;49.878;8.142;2023-07-29T02:34:45;8.05;;;3.45;;
66559;SDS011;53413;49.878;8.142;2023-07-29T02:37:10;8.07;;;2.83;;
66559;SDS011;53413;49.878;8.142;2023-07-29T02:39:36;8.83;;;3.20;;
66559;SDS011;53413;49.878;8.142;2023-07-29T02:42:02;9.88;;;3.30;;
66559;SDS011;53413;49.878;8.142;2023-07-29T02:44:27;9.02;;;3.30;;
66559;SDS011;53413;49.878;8.142;2023-07-29T02:46:52;9.77;;;3.00;;
66559;SDS011;53413;49.878;8.142;2023-07-29T02:49:19;7.55;;;2.85;;
66559;SDS011;53413;49.878;8.142;2023-07-29T02:51:45;8.40;;;3.20;;
66559;SDS011;53413;49.878;8.142;2023-07-29T02:54:10;8.37;;;3.27;;
66559;SDS011;53413;49.878;8.142;2023-07-29T02:56:35;8.87;;;3.40;;
66559;SDS011;53413;49.878;8.142;2023-07-29T02:59:01;8.80;;;3.13;;
66559;SDS011;53413;49.878;8.142;2023-07-29T03:01:26;8.20;;;3.10;;
66559;SDS011;53413;49.878;8.142;2023-07-29T03:03:52;7.43;;;3.13;;
66559;SDS011;53413;49.878;8.142;2023-07-29T03:06:18;8.30;;;3.03;;
66559;SDS011;53413;49.878;8.142;2023-07-29T03:08:44;9.30;;;3.20;;
66559;SDS011;53413;49.878;8.142;2023-07-29T03:11:10;9.73;;;3.53;;
66559;SDS011;53413;49.878;8.142;2023-07-29T03:13:36;9.32;;;3.35;;
66559;SDS011;53413;49.878;8.142;2023-07-29T03:16:12;8.80;;;3.40;;
66559;SDS011;53413;49.878;8.142;2023-07-29T03:18:39;8.63;;;3.67;;
66559;SDS011;53413;49.878;8.142;2023-07-29T03:21:05;9.30;;;3.50;;
66559;SDS011;53413;49.878;8.142;2023-07-29T03:23:31;10.05;;;3.55;;
66559;SDS011;53413;49.878;8.142;2023-07-29T03:25:58;11.75;;;3.97;;
66559;SDS011;53413;49.878;8.142;2023-07-29T03:28:28;10.83;;;4.00;;
66559;SDS011;53413;49.878;8.142;2023-07-29T03:30:55;8.68;;;3.50;;
66559;SDS011;53413;49.878;8.142;2023-07-29T03:33:21;9.13;;;3.42;;
66559;SDS011;53413;49.878;8.142;2023-07-29T03:35:46;10.27;;;3.77;;
66559;SDS011;53413;49.878;8.142;2023-07-29T03:38:12;9.35;;;3.47;;
66559;SDS011;53413;49.878;8.142;2023-07-29T03:40:38;8.77;;;3.30;;
66559;SDS011;53413;49.878;8.142;2023-07-29T03:43:04;8.85;;;3.33;;
66559;SDS011;53413;49.878;8.142;2023-07-29T03:45:29;8.70;;;3.40;;
66559;SDS011;53413;49.878;8.142;2023-07-29T03:47:54;10.40;;;3.77;;
66559;SDS011;53413;49.878;8.142;2023-07-29T03:50:20;9.90;;;3.80;;
66559;SDS011;53413;49.878;8.142;2023-07-29T03:52:45;12.13;;;3.90;;
66559;SDS011;53413;49.878;8.142;2023-07-29T03:55:11;11.77;;;4.10;;
66559;SDS011;53413;49.878;8.142;2023-07-29T03:57:36;11.48;;;3.83;;
66559;SDS011;53413;49.878;8.142;2023-07-29T04:00:02;13.75;;;4.10;;
66559;SDS011;53413;49.878;8.142;2023-07-29T04:02:28;10.43;;;4.10;;
66559;SDS011;53413;49.878;8.142;2023-07-29T04:04:53;10.40;;;4.00;;
66559;SDS011;53413;49.878;8.142;2023-07-29T04:07:19;11.93;;;4.37;;
66559;SDS011;53413;49.878;8.142;2023-07-29T04:09:44;9.60;;;4.10;;
66559;SDS011;53413;49.878;8.142;2023-07-29T04:12:09;13.83;;;4.53;;
66559;SDS011;53413;49.878;8.142;2023-07-29T04:14:35;12.02;;;4.82;;
66559;SDS011;53413;49.878;8.142;2023-07-29T04:17:00;11.80;;;4.80;;
66559;SDS011;53413;49.878;8.142;2023-07-29T04:19:26;12.63;;;5.40;;
66559;SDS011;53413;49.878;8.142;2023-07-29T04:21:51;10.60;;;4.40;;
66559;SDS011;53413;49.878;8.142;2023-07-29T04:24:16;15.10;;;5.20;;
66559;SDS011;53413;49.878;8.142;2023-07-29T04:26:42;11.93;;;4.53;;
66559;SDS011;53413;49.878;8.142;2023-07-29T04:29:07;10.30;;;3.65;;
66559;SDS011;53413;49.878;8.142;2023-07-29T04:31:33;10.60;;;4.15;;
66559;SDS011;53413;49.878;8.142;2023-07-29T04:33:58;11.97;;;4.63;;
66559;SDS011;53413;49.878;8.142;2023-07-29T04:36:23;10.37;;;4.23;;
66559;SDS011;53413;49.878;8.142;2023-07-29T04:38:49;13.93;;;4.80;;
66559;SDS011;53413;49.878;8.142;2023-07-29T04:41:14;11.57;;;4.27;;
66559;SDS011;53413;49.878;8.142;2023-07-29T04:43:39;10.77;;;4.60;;
66559;SDS011;53413;49.878;8.142;2023-07-29T04:46:08;14.43;;;5.07;;
66559;SDS011;53413;49.878;8.142;2023-07-29T04:48:33;12.38;;;5.35;;
66559;SDS011;53413;49.878;8.142;2023-07-29T04:50:59;9.60;;;4.63;;
66559;SDS011;53413;49.878;8.142;2023-07-29T04:53:24;8.85;;;4.20;;
66559;SDS011;53413;49.878;8.142;2023-07-29T04:55:49;11.53;;;4.60;;
66559;SDS011;53413;49.878;8.142;2023-07-29T04:58:15;9.87;;;4.93;;
66559;SDS011;53413;49.878;8.142;2023-07-29T05:00:40;9.93;;;5.03;;
66559;SDS011;53413;49.878;8.142;2023-07-29T05:03:05;9.77;;;4.40;;
66559;SDS011;53413;49.878;8.142;2023-07-29T05:05:31;9.77;;;4.90;;
66559;SDS011;53413;49.878;8.142;2023-07-29T05:07:57;10.47;;;4.87;;
66559;SDS011;53413;49.878;8.142;2023-07-29T05:10:22;9.10;;;4.67;;
66559;SDS011;53413;49.878;8.142;2023-07-29T05:12:47;7.90;;;4.47;;
66559;SDS011;53413;49.878;8.142;2023-07-29T05:15:13;7.10;;;4.00;;
66559;SDS011;53413;49.878;8.142;2023-07-29T05:17:39;8.07;;;4.00;;
66559;SDS011;53413;49.878;8.142;2023-07-29T05:20:04;8.63;;;3.60;;
66559;SDS011;53413;49.878;8.142;2023-07-29T05:22:30;7.28;;;3.85;;
66559;SDS011;53413;49.878;8.142;2023-07-29T05:24:55;7.43;;;3.73;;
66559;SDS011;53413;49.878;8.142;2023-07-29T05:27:21;7.60;;;3.90;;
66559;SDS011;53413;49.878;8.142;2023-07-29T05:29:46;7.70;;;4.10;;
66559;SDS011;53413;49.878;8.142;2023-07-29T05:32:11;8.50;;;3.88;;
66559;SDS011;53413;49.878;8.142;2023-07-29T05:34:37;8.60;;;3.50;;
66559;SDS011;53413;49.878;8.142;2023-07-29T05:37:02;7.73;;;3.73;;
66559;SDS011;53413;49.878;8.142;2023-07-29T05:39:28;6.70;;;3.60;;
66559;SDS011;53413;49.878;8.142;2023-07-29T05:41:53;8.13;;;3.70;;
66559;SDS011;53413;49.878;8.142;2023-07-29T05:44:19;7.33;;;3.60;;
66559;SDS011;53413;49.878;8.142;2023-07-29T05:46:45;7.25;;;3.60;;
66559;SDS011;53413;49.878;8.142;2023-07-29T05:49:10;7.33;;;3.70;;
66559;SDS011;53413;49.878;8.142;2023-07-29T05:51:35;6.53;;;3.40;;
66559;SDS011;53413;49.878;8.142;2023-07-29T05:54:01;7.70;;;4.10;;
66559;SDS011;53413;49.878;8.142;2023-07-29T05:56:26;8.07;;;3.63;;
66559;SDS011;53413;49.878;8.142;2023-07-29T05:58:51;9.60;;;3.80;;
66559;SDS011;53413;49.878;8.142;2023-07-29T06:01:17;8.67;;;3.77;;
66559;SDS011;53413;49.878;8.142;2023-07-29T06:03:42;7.35;;;3.30;;
66559;SDS011;53413;49.878;8.142;2023-07-29T06:06:08;7.70;;;3.77;;
66559;SDS011;53413;49.878;8.142;2023-07-29T06:08:33;7.83;;;3.70;;
66559;SDS011;53413;49.878;8.142;2023-07-29T06:10:59;7.57;;;3.50;;
66559;SDS011;53413;49.878;8.142;2023-07-29T06:13:25;6.57;;;3.60;;
66559;SDS011;53413;49.878;8.142;2023-07-29T06:15:50;5.40;;;3.03;;
66559;SDS011;53413;49.878;8.142;2023-07-29T06:18:15;6.93;;;3.63;;
66559;SDS011;53413;49.878;8.142;2023-07-29T06:20:41;7.87;;;3.93;;
66559;SDS011;53413;49.878;8.142;2023-07-29T06:23:07;7.43;;;3.70;;
66559;SDS011;53413;49.878;8.142;2023-07-29T06:25:33;7.30;;;3.55;;
66559;SDS011;53413;49.878;8.142;2023-07-29T06:27:58;7.53;;;3.60;;
66559;SDS011;53413;49.878;8.142;2023-07-29T06:30:23;6.33;;;3.60;;
66559;SDS011;53413;49.878;8.142;2023-07-29T06:32:49;7.13;;;3.63;;
66559;SDS011;53413;49.878;8.142;2023-07-29T06:35:14;8.00;;;3.90;;
66559;SDS011;53413;49.878;8.142;2023-07-29T06:37:39;6.93;;;3.85;;
66559;SDS011;53413;49.878;8.142;2023-07-29T06:40:05;8.40;;;4.00;;
66559;SDS011;53413;49.878;8.142;2023-07-29T06:42:31;7.90;;;4.40;;
66559;SDS011;53413;49.878;8.142;2023-07-29T06:44:56;8.40;;;4.25;;
66559;SDS011;53413;49.878;8.142;2023-07-29T06:47:21;8.07;;;4.00;;
66559;SDS011;53413;49.878;8.142;2023-07-29T06:49:47;7.37;;;3.60;;
66559;SDS011;53413;49.878;8.142;2023-07-29T06:52:12;8.63;;;3.73;;
66559;SDS011;53413;49.878;8.142;2023-07-29T06:54:37;7.97;;;3.40;;
66559;SDS011;53413;49.878;8.142;2023-07-29T06:57:03;6.60;;;3.43;;
66559;SDS011;53413;49.878;8.142;2023-07-29T06:59:29;6.40;;;3.42;;
66559;SDS011;53413;49.878;8.142;2023-07-29T07:01:54;6.50;;;3.30;;
66559;SDS011;53413;49.878;8.142;2023-07-29T07:04:19;5.77;;;3.30;;
66559;SDS011;53413;49.878;8.142;2023-07-29T07:06:45;7.97;;;3.60;;
66559;SDS011;53413;49.878;8.142;2023-07-29T07:09:10;5.75;;;3.38;;
66559;SDS011;53413;49.878;8.142;2023-07-29T07:11:35;8.40;;;3.50;;
66559;SDS011;53413;49.878;8.142;2023-07-29T07:14:01;7.10;;;3.40;;
66559;SDS011;53413;49.878;8.142;2023-07-29T07:16:26;6.80;;;3.70;;
66559;SDS011;53413;49.878;8.142;2023-07-29T07:18:54;6.82;;;3.50;;
66559;SDS011;53413;49.878;8.142;2023-07-29T07:21:19;6.53;;;3.40;;
66559;SDS011;53413;49.878;8.142;2023-07-29T07:23:45;5.60;;;3.10;;
66559;SDS011;53413;49.878;8.142;2023-07-29T07:26:10;5.17;;;2.33;;
66559;SDS011;53413;49.878;8.142;2023-07-29T07:28:35;4.10;;;2.10;;
66559;SDS011;53413;49.878;8.142;2023-07-29T07:31:02;4.18;;;1.65;;
66559;SDS011;53413;49.878;8.142;2023-07-29T07:33:27;4.30;;;1.50;;
66559;SDS011;53413;49.878;8.142;2023-07-29T07:35:53;4.80;;;1.27;;
66559;SDS011;53413;49.878;8.142;2023-07-29T07:38:18;3.20;;;1.37;;
66559;SDS011;53413;49.878;8.142;2023-07-29T07:40:51;4.10;;;1.50;;
66559;SDS011;53413;49.878;8.142;2023-07-29T07:43:19;3.63;;;1.30;;
66559;SDS011;53413;49.878;8.142;2023-07-29T07:45:44;3.80;;;1.37;;
66559;SDS011;53413;49.878;8.142;2023-07-29T07:48:09;3.20;;;1.03;;
66559;SDS011;53413;49.878;8.142;2023-07-29T07:50:36;2.90;;;1.13;;
66559;SDS011;53413;49.878;8.142;2023-07-29T07:53:02;3.60;;;0.90;;
66559;SDS011;53413;49.878;8.142;2023-07-29T07:55:27;3.30;;;0.90;;
66559;SDS011;53413;49.878;8.142;2023-07-29T07:57:53;3.15;;;1.10;;
66559;SDS011;53413;49.878;8.142;2023-07-29T08:00:18;2.70;;;0.80;;
66559;SDS011;53413;49.878;8.142;2023-07-29T08:02:44;3.05;;;0.80;;
66559;SDS011;53413;49.878;8.142;2023-07-29T08:05:10;3.13;;;1.20;;
66559;SDS011;53413;49.878;8.142;2023-07-29T08:07:35;2.50;;;0.90;;
66559;SDS011;53413;49.878;8.142;2023-07-29T08:10:01;3.03;;;1.03;;
66559;SDS011;53413;49.878;8.142;2023-07-29T08:12:26;2.80;;;1.00;;
66559;SDS011;53413;49.878;8.142;2023-07-29T08:14:51;3.13;;;1.25;;
66559;SDS011;53413;49.878;8.142;2023-07-29T08:17:16;3.08;;;0.88;;
66559;SDS011;53413;49.878;8.142;2023-07-29T08:19:42;3.93;;;1.00;;
66559;SDS011;53413;49.878;8.142;2023-07-29T08:22:07;2.40;;;0.80;;
66559;SDS011;53413;49.878;8.142;2023-07-29T08:24:32;3.53;;;1.00;;
66559;SDS011;53413;49.878;8.142;2023-07-29T08:26:59;3.08;;;1.20;;
66559;SDS011;53413;49.878;8.142;2023-07-29T08:29:24;2.83;;;1.10;;
66559;SDS011;53413;49.878;8.142;2023-07-29T08:31:49;3.20;;;1.40;;
66559;SDS011;53413;49.878;8.142;2023-07-29T08:34:16;2.70;;;1.25;;
66559;SDS011;53413;49.878;8.142;2023-07-29T08:36:42;4.33;;;1.50;;
66559;SDS011;53413;49.878;8.142;2023-07-29T08:39:07;3.67;;;1.10;;
66559;SDS011;53413;49.878;8.142;2023-07-29T08:41:34;3.92;;;1.10;;
66559;SDS011;53413;49.878;8.142;2023-07-29T08:44:09;2.83;;;1.30;;
66559;SDS011;53413;49.878;8.142;2023-07-29T08:46:41;3.13;;;1.10;;
66559;SDS011;53413;49.878;8.142;2023-07-29T08:49:07;3.28;;;1.30;;
66559;SDS011;53413;49.878;8.142;2023-07-29T08:51:33;3.33;;;1.33;;
66559;SDS011;53413;49.878;8.142;2023-07-29T08:53:59;3.35;;;1.33;;
66559;SDS011;53413;49.878;8.142;2023-07-29T08:56:25;3.10;;;1.30;;
66559;SDS011;53413;49.878;8.142;2023-07-29T08:58:50;3.37;;;1.30;;
66559;SDS011;53413;49.878;8.142;2023-07-29T09:01:17;3.20;;;1.27;;
66559;SDS011;53413;49.878;8.142;2023-07-29T09:03:42;3.20;;;1.13;;
66559;SDS011;53413;49.878;8.142;2023-07-29T09:06:08;4.73;;;1.30;;
66559;SDS011;53413;49.878;8.142;2023-07-29T09:08:33;3.03;;;1.20;;
66559;SDS011;53413;49.878;8.142;2023-07-29T09:10:59;3.20;;;1.30;;
66559;SDS011;53413;49.878;8.142;2023-07-29T09:13:25;4.03;;;1.40;;
66559;SDS011;53413;49.878;8.142;2023-07-29T09:15:54;3.00;;;1.27;;
66559;SDS011;53413;49.878;8.142;2023-07-29T09:18:21;3.33;;;1.33;;
66559;SDS011;53413;49.878;8.142;2023-07-29T09:20:47;3.45;;;1.50;;
66559;SDS011;53413;49.878;8.142;2023-07-29T09:23:14;3.17;;;1.20;;
66559;SDS011;53413;49.878;8.142;2023-07-29T09:25:40;3.10;;;1.70;;
66559;SDS011;53413;49.878;8.142;2023-07-29T09:28:12;3.05;;;1.15;;
66559;SDS011;53413;49.878;8.142;2023-07-29T09:30:39;3.20;;;1.35;;
66559;SDS011;53413;49.878;8.142;2023-07-29T09:33:05;3.20;;;1.20;;
66559;SDS011;53413;49.878;8.142;2023-07-29T09:35:33;3.80;;;1.50;;
66559;SDS011;53413;49.878;8.142;2023-07-29T09:37:59;4.47;;;1.95;;
66559;SDS011;53413;49.878;8.142;2023-07-29T09:40:25;3.53;;;2.10;;
66559;SDS011;53413;49.878;8.142;2023-07-29T09:42:51;4.17;;;1.87;;
66559;SDS011;53413;49.878;8.142;2023-07-29T09:45:24;3.42;;;1.60;;
66559;SDS011;53413;49.878;8.142;2023-07-29T09:47:53;3.77;;;1.90;;
66559;SDS011;53413;49.878;8.142;2023-07-29T09:50:23;4.05;;;1.40;;
66559;SDS011;53413;49.878;8.142;2023-07-29T09:52:50;3.90;;;2.00;;
66559;SDS011;53413;49.878;8.142;2023-07-29T09:55:17;3.70;;;1.52;;
66559;SDS011;53413;49.878;8.142;2023-07-29T09:57:44;3.75;;;1.90;;
66559;SDS011;53413;49.878;8.142;2023-07-29T10:00:12;4.57;;;1.70;;
66559;SDS011;53413;49.878;8.142;2023-07-29T10:02:39;3.22;;;1.52;;
66559;SDS011;53413;49.878;8.142;2023-07-29T10:05:06;3.53;;;1.85;;
66559;SDS011;53413;49.878;8.142;2023-07-29T10:07:33;4.00;;;1.50;;
66559;SDS011;53413;49.878;8.142;2023-07-29T10:10:01;3.03;;;1.20;;
66559;SDS011;53413;49.878;8.142;2023-07-29T10:12:28;3.90;;;1.55;;
66559;SDS011;53413;49.878;8.142;2023-07-29T10:14:55;4.03;;;1.90;;
66559;SDS011;53413;49.878;8.142;2023-07-29T10:17:29;3.33;;;1.48;;
66559;SDS011;53413;49.878;8.142;2023-07-29T10:19:55;3.92;;;1.45;;
66559;SDS011;53413;49.878;8.142;2023-07-29T10:22:22;4.13;;;1.57;;
66559;SDS011;53413;49.878;8.142;2023-07-29T10:24:53;5.38;;;1.40;;
66559;SDS011;53413;49.878;8.142;2023-07-29T10:27:21;3.30;;;1.27;;
66559;SDS011;53413;49.878;8.142;2023-07-29T10:29:49;3.08;;;1.30;;
66559;SDS011;53413;49.878;8.142;2023-07-29T10:32:16;3.10;;;1.50;;
66559;SDS011;53413;49.878;8.142;2023-07-29T10:34:41;3.77;;;1.50;;
66559;SDS011;53413;49.878;8.142;2023-07-29T10:37:07;3.00;;;1.53;;
66559;SDS011;53413;49.878;8.142;2023-07-29T10:39:39;3.25;;;1.55;;
66559;SDS011;53413;49.878;8.142;2023-07-29T10:42:06;3.83;;;1.50;;
66559;SDS011;53413;49.878;8.142;2023-07-29T10:47:25;4.90;;;1.65;;
66559;SDS011;53413;49.878;8.142;2023-07-29T10:49:55;3.50;;;1.50;;
66559;SDS011;53413;49.878;8.142;2023-07-29T10:54:58;4.13;;;1.65;;
66559;SDS011;53413;49.878;8.142;2023-07-29T10:57:34;3.60;;;1.70;;
66559;SDS011;53413;49.878;8.142;2023-07-29T11:00:04;3.90;;;1.60;;
66559;SDS011;53413;49.878;8.142;2023-07-29T11:04:57;4.00;;;1.70;;
66559;SDS011;53413;49.878;8.142;2023-07-29T11:07:23;4.93;;;1.87;;
66559;SDS011;53413;49.878;8.142;2023-07-29T11:15:21;3.45;;;1.45;;
66559;SDS011;53413;49.878;8.142;2023-07-29T11:17:58;4.55;;;1.70;;
66559;SDS011;53413;49.878;8.142;2023-07-29T11:20:31;3.60;;;1.60;;
66559;SDS011;53413;49.878;8.142;2023-07-29T11:22:58;3.65;;;1.70;;
66559;SDS011;53413;49.878;8.142;2023-07-29T11:25:26;3.40;;;1.70;;
66559;SDS011;53413;49.878;8.142;2023-07-29T11:27:53;4.47;;;1.60;;
66559;SDS011;53413;49.878;8.142;2023-07-29T11:30:23;4.25;;;1.65;;
66559;SDS011;53413;49.878;8.142;2023-07-29T11:32:51;5.70;;;1.60;;
66559;SDS011;53413;49.878;8.142;2023-07-29T11:35:18;3.88;;;1.45;;
66559;SDS011;53413;49.878;8.142;2023-07-29T11:37:45;4.60;;;1.70;;
66559;SDS011;53413;49.878;8.142;2023-07-29T11:40:16;4.55;;;1.67;;
66559;SDS011;53413;49.878;8.142;2023-07-29T11:42:43;3.00;;;1.45;;
66559;SDS011;53413;49.878;8.142;2023-07-29T11:45:10;4.78;;;1.60;;
66559;SDS011;53413;49.878;8.142;2023-07-29T11:47:36;3.65;;;1.30;;
66559;SDS011;53413;49.878;8.142;2023-07-29T11:50:05;3.30;;;1.40;;
66559;SDS011;53413;49.878;8.142;2023-07-29T11:52:34;3.13;;;1.30;;
66559;SDS011;53413;49.878;8.142;2023-07-29T11:55:01;3.00;;;1.25;;
66559;SDS011;53413;49.878;8.142;2023-07-29T11:57:28;3.30;;;1.45;;
66559;SDS011;53413;49.878;8.142;2023-07-29T11:59:54;3.47;;;1.45;;
66559;SDS011;53413;49.878;8.142;2023-07-29T12:02:20;3.40;;;1.20;;
66559;SDS011;53413;49.878;8.142;2023-07-29T12:04:48;3.55;;;1.40;;
66559;SDS011;53413;49.878;8.142;2023-07-29T12:07:14;3.45;;;1.50;;
66559;SDS011;53413;49.878;8.142;2023-07-29T12:09:42;3.53;;;1.33;;
66559;SDS011;53413;49.878;8.142;2023-07-29T12:12:08;3.03;;;1.30;;
66559;SDS011;53413;49.878;8.142;2023-07-29T12:14:34;4.20;;;1.50;;
66559;SDS011;53413;49.878;8.142;2023-07-29T12:17:04;4.53;;;1.20;;
66559;SDS011;53413;49.878;8.142;2023-07-29T12:22:00;3.70;;;1.40;;
66559;SDS011;53413;49.878;8.142;2023-07-29T12:24:33;3.30;;;1.30;;
66559;SDS011;53413;49.878;8.142;2023-07-29T12:27:00;3.35;;;1.50;;
66559;SDS011;53413;49.878;8.142;2023-07-29T12:29:26;3.50;;;1.60;;
66559;SDS011;53413;49.878;8.142;2023-07-29T12:31:59;2.90;;;1.30;;
66559;SDS011;53413;49.878;8.142;2023-07-29T12:34:29;3.83;;;1.52;;
66559;SDS011;53413;49.878;8.142;2023-07-29T12:36:55;3.72;;;1.35;;
66559;SDS011;53413;49.878;8.142;2023-07-29T12:39:26;3.00;;;1.27;;
66559;SDS011;53413;49.878;8.142;2023-07-29T12:41:56;3.90;;;1.40;;
66559;SDS011;53413;49.878;8.142;2023-07-29T12:44:23;3.60;;;1.40;;
66559;SDS011;53413;49.878;8.142;2023-07-29T12:46:50;3.70;;;1.35;;
66559;SDS011;53413;49.878;8.142;2023-07-29T12:49:16;4.10;;;1.30;;
66559;SDS011;53413;49.878;8.142;2023-07-29T12:51:42;3.60;;;1.50;;
66559;SDS011;53413;49.878;8.142;2023-07-29T12:54:08;3.10;;;1.30;;
66559;SDS011;53413;49.878;8.142;2023-07-29T12:56:33;3.53;;;1.57;;
66559;SDS011;53413;49.878;8.142;2023-07-29T12:58:59;3.17;;;1.38;;
66559;SDS011;53413;49.878;8.142;2023-07-29T13:01:25;3.80;;;1.50;;
66559;SDS011;53413;49.878;8.142;2023-07-29T13:03:52;3.70;;;1.40;;
66559;SDS011;53413;49.878;8.142;2023-07-29T13:06:17;3.77;;;1.67;;
66559;SDS011;53413;49.878;8.142;2023-07-29T13:08:43;3.17;;;1.42;;
66559;SDS011;53413;49.878;8.142;2023-07-29T13:11:09;3.60;;;1.50;;
66559;SDS011;53413;49.878;8.142;2023-07-29T13:13:34;3.63;;;1.40;;
66559;SDS011;53413;49.878;8.142;2023-07-29T13:16:00;5.53;;;1.60;;
66559;SDS011;53413;49.878;8.142;2023-07-29T13:18:26;4.00;;;1.65;;
66559;SDS011;53413;49.878;8.142;2023-07-29T13:20:51;3.30;;;1.50;;
66559;SDS011;53413;49.878;8.142;2023-07-29T13:23:17;3.27;;;1.43;;
66559;SDS011;53413;49.878;8.142;2023-07-29T13:25:42;4.45;;;1.50;;
66559;SDS011;53413;49.878;8.142;2023-07-29T13:28:10;3.83;;;1.60;;
66559;SDS011;53413;49.878;8.142;2023-07-29T13:30:38;3.37;;;1.30;;
66559;SDS011;53413;49.878;8.142;2023-07-29T13:33:03;4.38;;;1.50;;
66559;SDS011;53413;49.878;8.142;2023-07-29T13:35:30;4.50;;;1.70;;
66559;SDS011;53413;49.878;8.142;2023-07-29T13:37:55;4.28;;;1.45;;
66559;SDS011;53413;49.878;8.142;2023-07-29T13:40:21;3.40;;;1.50;;
66559;SDS011;53413;49.878;8.142;2023-07-29T13:42:46;4.10;;;2.03;;
66559;SDS011;53413;49.878;8.142;2023-07-29T13:45:11;12.03;;;9.17;;
66559;SDS011;53413;49.878;8.142;2023-07-29T13:47:37;7.75;;;5.10;;
66559;SDS011;53413;49.878;8.142;2023-07-29T13:50:02;4.57;;;2.30;;
66559;SDS011;53413;49.878;8.142;2023-07-29T13:52:28;3.63;;;1.70;;
66559;SDS011;53413;49.878;8.142;2023-07-29T13:54:53;3.70;;;1.70;;
66559;SDS011;53413;49.878;8.142;2023-07-29T13:57:19;3.50;;;1.60;;
66559;SDS011;53413;49.878;8.142;2023-07-29T13:59:44;3.63;;;1.50;;
66559;SDS011;53413;49.878;8.142;2023-07-29T14:02:10;3.60;;;1.60;;
66559;SDS011;53413;49.878;8.142;2023-07-29T14:04:35;3.40;;;1.50;;
66559;SDS011;53413;49.878;8.142;2023-07-29T14:07:00;3.25;;;1.40;;
66559;SDS011;53413;49.878;8.142;2023-07-29T14:09:26;3.58;;;1.58;;
66559;SDS011;53413;49.878;8.142;2023-07-29T14:11:51;3.70;;;1.50;;
66559;SDS011;53413;49.878;8.142;2023-07-29T14:14:17;3.55;;;1.60;;
66559;SDS011;53413;49.878;8.142;2023-07-29T14:16:42;3.30;;;1.33;;
66559;SDS011;53413;49.878;8.142;2023-07-29T14:19:08;4.37;;;1.57;;
66559;SDS011;53413;49.878;8.142;2023-07-29T14:21:33;3.20;;;1.40;;
66559;SDS011;53413;49.878;8.142;2023-07-29T14:23:58;4.00;;;1.60;;
66559;SDS011;53413;49.878;8.142;2023-07-29T14:26:24;3.67;;;1.67;;
66559;SDS011;53413;49.878;8.142;2023-07-29T14:28:49;11.63;;;10.05;;
66559;SDS011;53413;49.878;8.142;2023-07-29T14:31:15;4.70;;;2.10;;
66559;SDS011;53413;49.878;8.142;2023-07-29T14:33:42;4.80;;;2.78;;
66559;SDS011;53413;49.878;8.142;2023-07-29T14:36:10;4.73;;;2.73;;
66559;SDS011;53413;49.878;8.142;2023-07-29T14:38:35;6.55;;;3.60;;
66559;SDS011;53413;49.878;8.142;2023-07-29T14:41:01;4.37;;;2.47;;
66559;SDS011;53413;49.878;8.142;2023-07-29T14:43:27;4.43;;;1.70;;
66559;SDS011;53413;49.878;8.142;2023-07-29T14:45:52;5.00;;;2.70;;
66559;SDS011;53413;49.878;8.142;2023-07-29T14:48:18;3.90;;;1.70;;
66559;SDS011;53413;49.878;8.142;2023-07-29T14:50:43;4.27;;;1.73;;
66559;SDS011;53413;49.878;8.142;2023-07-29T14:53:09;3.33;;;1.60;;
66559;SDS011;53413;49.878;8.142;2023-07-29T14:55:35;3.45;;;1.50;;
66559;SDS011;53413;49.878;8.142;2023-07-29T14:58:01;3.10;;;1.45;;